Andover, United Kingdom
Current Conditions -  °F | °C
As of 10:50 PM on Thursday 20 Nov 2014 (Local Time) from EGVP Reporting Station
Overcast Overcast  
Wind Chill: 41°   Ceiling: 1000
Heat Index: 45°   Visibility: 2.5mi
Dew Point: 43°   Wind: 7mph
Humidity: 93%   Direction: 90°E
Pressure: 30.18"   Gusts: NA
Location:  51.21°N, 1.48°W
Report Text: EGVP 202250Z AUTO 09006KT 4100 // OVC010/// 07/06 Q1022
Loading
Personal Weather Stations






























Interactive Weather Map New forecast layout! Learn more

10-Day Weather Forecast

Advertisements
Track Severe Weather on mobile